sensor_id;sensor_type;location;lat;lon;timestamp;P1;durP1;ratioP1;P2;durP2;ratioP2
21754;SDS011;11039;50.028;19.938;2022-08-30T00:00:25;10.57;;;6.32;;
21754;SDS011;11039;50.028;19.938;2022-08-30T00:03:10;12.73;;;7.60;;
21754;SDS011;11039;50.028;19.938;2022-08-30T00:05:37;11.32;;;6.13;;
21754;SDS011;11039;50.028;19.938;2022-08-30T00:08:04;10.02;;;6.07;;
21754;SDS011;11039;50.028;19.938;2022-08-30T00:10:30;12.35;;;7.10;;
21754;SDS011;11039;50.028;19.938;2022-08-30T00:12:56;9.80;;;6.18;;
21754;SDS011;11039;50.028;19.938;2022-08-30T00:15:22;11.93;;;6.20;;
21754;SDS011;11039;50.028;19.938;2022-08-30T00:17:49;12.63;;;6.68;;
21754;SDS011;11039;50.028;19.938;2022-08-30T00:20:17;9.68;;;5.93;;
21754;SDS011;11039;50.028;19.938;2022-08-30T00:22:43;13.05;;;6.30;;
21754;SDS011;11039;50.028;19.938;2022-08-30T00:25:10;8.95;;;6.07;;
21754;SDS011;11039;50.028;19.938;2022-08-30T00:27:36;11.25;;;6.47;;
21754;SDS011;11039;50.028;19.938;2022-08-30T00:30:03;11.50;;;6.15;;
21754;SDS011;11039;50.028;19.938;2022-08-30T00:32:29;10.32;;;6.28;;
21754;SDS011;11039;50.028;19.938;2022-08-30T00:34:55;12.40;;;6.60;;
21754;SDS011;11039;50.028;19.938;2022-08-30T00:37:21;10.90;;;6.22;;
21754;SDS011;11039;50.028;19.938;2022-08-30T00:39:47;8.98;;;6.20;;
21754;SDS011;11039;50.028;19.938;2022-08-30T00:42:14;9.93;;;6.10;;
21754;SDS011;11039;50.028;19.938;2022-08-30T00:44:41;8.52;;;5.65;;
21754;SDS011;11039;50.028;19.938;2022-08-30T00:47:07;10.65;;;6.30;;
21754;SDS011;11039;50.028;19.938;2022-08-30T00:49:34;11.77;;;5.97;;
21754;SDS011;11039;50.028;19.938;2022-08-30T00:52:01;9.60;;;6.18;;
21754;SDS011;11039;50.028;19.938;2022-08-30T00:54:28;7.97;;;5.97;;
21754;SDS011;11039;50.028;19.938;2022-08-30T00:56:54;11.10;;;5.88;;
21754;SDS011;11039;50.028;19.938;2022-08-30T00:59:21;10.75;;;5.63;;
21754;SDS011;11039;50.028;19.938;2022-08-30T01:01:48;9.18;;;5.55;;
21754;SDS011;11039;50.028;19.938;2022-08-30T01:04:14;9.13;;;5.38;;
21754;SDS011;11039;50.028;19.938;2022-08-30T01:06:44;10.13;;;5.22;;
21754;SDS011;11039;50.028;19.938;2022-08-30T01:09:10;9.80;;;5.18;;
21754;SDS011;11039;50.028;19.938;2022-08-30T01:11:37;10.52;;;5.47;;
21754;SDS011;11039;50.028;19.938;2022-08-30T01:14:03;12.40;;;5.70;;
21754;SDS011;11039;50.028;19.938;2022-08-30T01:16:30;8.02;;;5.43;;
21754;SDS011;11039;50.028;19.938;2022-08-30T01:18:57;6.88;;;5.00;;
21754;SDS011;11039;50.028;19.938;2022-08-30T01:23:50;9.50;;;5.28;;
21754;SDS011;11039;50.028;19.938;2022-08-30T01:26:18;10.50;;;5.47;;
21754;SDS011;11039;50.028;19.938;2022-08-30T01:28:48;9.15;;;4.80;;
21754;SDS011;11039;50.028;19.938;2022-08-30T01:31:15;8.65;;;5.70;;
21754;SDS011;11039;50.028;19.938;2022-08-30T01:33:41;6.57;;;4.18;;
21754;SDS011;11039;50.028;19.938;2022-08-30T01:36:10;10.20;;;4.93;;
21754;SDS011;11039;50.028;19.938;2022-08-30T01:38:38;7.78;;;4.85;;
21754;SDS011;11039;50.028;19.938;2022-08-30T01:41:15;8.05;;;4.88;;
21754;SDS011;11039;50.028;19.938;2022-08-30T01:43:42;8.93;;;5.57;;
21754;SDS011;11039;50.028;19.938;2022-08-30T01:46:08;8.95;;;5.50;;
21754;SDS011;11039;50.028;19.938;2022-08-30T01:48:35;14.07;;;5.25;;
21754;SDS011;11039;50.028;19.938;2022-08-30T01:51:01;14.00;;;5.20;;
21754;SDS011;11039;50.028;19.938;2022-08-30T01:53:27;8.63;;;4.78;;
21754;SDS011;11039;50.028;19.938;2022-08-30T01:55:53;10.65;;;5.40;;
21754;SDS011;11039;50.028;19.938;2022-08-30T01:58:20;7.53;;;4.60;;
21754;SDS011;11039;50.028;19.938;2022-08-30T02:00:46;8.93;;;4.80;;
21754;SDS011;11039;50.028;19.938;2022-08-30T02:03:12;8.38;;;4.80;;
21754;SDS011;11039;50.028;19.938;2022-08-30T02:05:38;9.27;;;4.75;;
21754;SDS011;11039;50.028;19.938;2022-08-30T02:08:04;11.63;;;5.75;;
21754;SDS011;11039;50.028;19.938;2022-08-30T02:10:30;12.73;;;4.97;;
21754;SDS011;11039;50.028;19.938;2022-08-30T02:12:56;9.90;;;5.03;;
21754;SDS011;11039;50.028;19.938;2022-08-30T02:15:23;7.95;;;5.00;;
21754;SDS011;11039;50.028;19.938;2022-08-30T02:17:50;7.93;;;5.20;;
21754;SDS011;11039;50.028;19.938;2022-08-30T02:20:16;11.35;;;5.15;;
21754;SDS011;11039;50.028;19.938;2022-08-30T02:22:42;7.10;;;4.47;;
21754;SDS011;11039;50.028;19.938;2022-08-30T02:25:08;8.60;;;4.65;;
21754;SDS011;11039;50.028;19.938;2022-08-30T02:27:34;9.90;;;4.95;;
21754;SDS011;11039;50.028;19.938;2022-08-30T02:30:00;10.85;;;5.47;;
21754;SDS011;11039;50.028;19.938;2022-08-30T02:32:27;10.15;;;4.90;;
21754;SDS011;11039;50.028;19.938;2022-08-30T02:34:53;8.82;;;5.03;;
21754;SDS011;11039;50.028;19.938;2022-08-30T02:37:19;8.02;;;4.65;;
21754;SDS011;11039;50.028;19.938;2022-08-30T02:39:45;8.98;;;5.30;;
21754;SDS011;11039;50.028;19.938;2022-08-30T02:42:11;10.57;;;4.65;;
21754;SDS011;11039;50.028;19.938;2022-08-30T02:44:37;9.55;;;5.10;;
21754;SDS011;11039;50.028;19.938;2022-08-30T02:47:04;9.27;;;5.28;;
21754;SDS011;11039;50.028;19.938;2022-08-30T02:49:30;6.57;;;4.63;;
21754;SDS011;11039;50.028;19.938;2022-08-30T02:51:56;12.82;;;5.78;;
21754;SDS011;11039;50.028;19.938;2022-08-30T02:54:22;9.48;;;5.15;;
21754;SDS011;11039;50.028;19.938;2022-08-30T02:56:48;10.63;;;5.25;;
21754;SDS011;11039;50.028;19.938;2022-08-30T02:59:15;13.00;;;5.03;;
21754;SDS011;11039;50.028;19.938;2022-08-30T03:01:42;8.43;;;5.13;;
21754;SDS011;11039;50.028;19.938;2022-08-30T03:04:08;8.55;;;5.43;;
21754;SDS011;11039;50.028;19.938;2022-08-30T03:06:34;9.10;;;5.05;;
21754;SDS011;11039;50.028;19.938;2022-08-30T03:09:00;7.95;;;4.70;;
21754;SDS011;11039;50.028;19.938;2022-08-30T03:11:26;7.85;;;4.82;;
21754;SDS011;11039;50.028;19.938;2022-08-30T03:13:52;9.90;;;5.28;;
21754;SDS011;11039;50.028;19.938;2022-08-30T03:16:18;8.13;;;5.13;;
21754;SDS011;11039;50.028;19.938;2022-08-30T03:18:45;8.00;;;5.10;;
21754;SDS011;11039;50.028;19.938;2022-08-30T03:21:13;7.68;;;4.80;;
21754;SDS011;11039;50.028;19.938;2022-08-30T03:23:39;9.60;;;4.50;;
21754;SDS011;11039;50.028;19.938;2022-08-30T03:26:08;8.65;;;4.82;;
21754;SDS011;11039;50.028;19.938;2022-08-30T03:28:37;12.02;;;5.28;;
21754;SDS011;11039;50.028;19.938;2022-08-30T03:31:03;7.88;;;4.82;;
21754;SDS011;11039;50.028;19.938;2022-08-30T03:33:29;9.23;;;5.35;;
21754;SDS011;11039;50.028;19.938;2022-08-30T03:35:55;9.68;;;4.78;;
21754;SDS011;11039;50.028;19.938;2022-08-30T03:38:21;8.10;;;4.70;;
21754;SDS011;11039;50.028;19.938;2022-08-30T03:40:48;8.93;;;5.25;;
21754;SDS011;11039;50.028;19.938;2022-08-30T03:43:14;8.40;;;4.80;;
21754;SDS011;11039;50.028;19.938;2022-08-30T03:45:40;12.35;;;5.13;;
21754;SDS011;11039;50.028;19.938;2022-08-30T03:48:06;9.48;;;4.63;;
21754;SDS011;11039;50.028;19.938;2022-08-30T03:50:32;10.50;;;4.38;;
21754;SDS011;11039;50.028;19.938;2022-08-30T03:53:00;12.57;;;5.10;;
21754;SDS011;11039;50.028;19.938;2022-08-30T03:55:27;7.75;;;4.93;;
21754;SDS011;11039;50.028;19.938;2022-08-30T03:57:53;7.43;;;5.00;;
21754;SDS011;11039;50.028;19.938;2022-08-30T04:00:19;9.40;;;5.07;;
21754;SDS011;11039;50.028;19.938;2022-08-30T04:02:46;6.45;;;4.55;;
21754;SDS011;11039;50.028;19.938;2022-08-30T04:05:12;9.93;;;5.30;;
21754;SDS011;11039;50.028;19.938;2022-08-30T04:07:38;7.28;;;4.55;;
21754;SDS011;11039;50.028;19.938;2022-08-30T04:10:05;10.65;;;4.68;;
21754;SDS011;11039;50.028;19.938;2022-08-30T04:12:32;6.95;;;4.85;;
21754;SDS011;11039;50.028;19.938;2022-08-30T04:14:58;8.48;;;4.85;;
21754;SDS011;11039;50.028;19.938;2022-08-30T04:17:24;7.35;;;4.60;;
21754;SDS011;11039;50.028;19.938;2022-08-30T04:19:50;7.72;;;4.72;;
21754;SDS011;11039;50.028;19.938;2022-08-30T04:22:16;8.43;;;5.00;;
21754;SDS011;11039;50.028;19.938;2022-08-30T04:24:42;7.53;;;4.78;;
21754;SDS011;11039;50.028;19.938;2022-08-30T04:27:08;9.55;;;5.00;;
21754;SDS011;11039;50.028;19.938;2022-08-30T04:29:34;8.98;;;5.40;;
21754;SDS011;11039;50.028;19.938;2022-08-30T04:32:00;9.73;;;5.13;;
21754;SDS011;11039;50.028;19.938;2022-08-30T04:34:27;10.23;;;5.47;;
21754;SDS011;11039;50.028;19.938;2022-08-30T04:36:53;9.25;;;5.00;;
21754;SDS011;11039;50.028;19.938;2022-08-30T04:39:19;7.70;;;4.75;;
21754;SDS011;11039;50.028;19.938;2022-08-30T04:41:45;10.20;;;4.93;;
21754;SDS011;11039;50.028;19.938;2022-08-30T04:44:11;6.13;;;4.65;;
21754;SDS011;11039;50.028;19.938;2022-08-30T04:46:39;8.73;;;4.82;;
21754;SDS011;11039;50.028;19.938;2022-08-30T04:49:05;9.80;;;4.90;;
21754;SDS011;11039;50.028;19.938;2022-08-30T04:51:31;7.30;;;4.47;;
21754;SDS011;11039;50.028;19.938;2022-08-30T04:53:57;7.35;;;4.82;;
21754;SDS011;11039;50.028;19.938;2022-08-30T04:56:23;8.70;;;5.65;;
21754;SDS011;11039;50.028;19.938;2022-08-30T04:58:50;11.90;;;4.97;;
21754;SDS011;11039;50.028;19.938;2022-08-30T05:01:18;8.50;;;4.88;;
21754;SDS011;11039;50.028;19.938;2022-08-30T05:03:44;8.57;;;4.47;;
21754;SDS011;11039;50.028;19.938;2022-08-30T05:06:11;8.52;;;4.88;;
21754;SDS011;11039;50.028;19.938;2022-08-30T05:08:37;9.82;;;4.47;;
21754;SDS011;11039;50.028;19.938;2022-08-30T05:11:04;8.73;;;5.28;;
21754;SDS011;11039;50.028;19.938;2022-08-30T05:13:31;10.18;;;5.00;;
21754;SDS011;11039;50.028;19.938;2022-08-30T05:15:57;9.77;;;4.82;;
21754;SDS011;11039;50.028;19.938;2022-08-30T05:18:24;8.55;;;4.53;;
21754;SDS011;11039;50.028;19.938;2022-08-30T05:21:01;9.55;;;4.82;;
21754;SDS011;11039;50.028;19.938;2022-08-30T05:23:27;8.32;;;4.45;;
21754;SDS011;11039;50.028;19.938;2022-08-30T05:25:53;9.32;;;4.85;;
21754;SDS011;11039;50.028;19.938;2022-08-30T05:28:19;9.07;;;4.22;;
21754;SDS011;11039;50.028;19.938;2022-08-30T05:30:45;9.07;;;4.68;;
21754;SDS011;11039;50.028;19.938;2022-08-30T05:33:11;7.35;;;4.80;;
21754;SDS011;11039;50.028;19.938;2022-08-30T05:35:37;9.35;;;5.13;;
21754;SDS011;11039;50.028;19.938;2022-08-30T05:38:05;9.13;;;4.57;;
21754;SDS011;11039;50.028;19.938;2022-08-30T05:40:31;26.40;;;5.47;;
21754;SDS011;11039;50.028;19.938;2022-08-30T05:42:57;8.50;;;4.70;;
21754;SDS011;11039;50.028;19.938;2022-08-30T05:45:23;13.65;;;5.07;;
21754;SDS011;11039;50.028;19.938;2022-08-30T05:47:49;8.52;;;4.95;;
21754;SDS011;11039;50.028;19.938;2022-08-30T05:50:15;11.43;;;4.68;;
21754;SDS011;11039;50.028;19.938;2022-08-30T05:52:41;10.13;;;5.00;;
21754;SDS011;11039;50.028;19.938;2022-08-30T05:55:09;9.93;;;4.10;;
21754;SDS011;11039;50.028;19.938;2022-08-30T05:57:36;7.82;;;4.28;;
21754;SDS011;11039;50.028;19.938;2022-08-30T06:00:07;12.82;;;4.45;;
21754;SDS011;11039;50.028;19.938;2022-08-30T06:02:33;6.93;;;4.65;;
21754;SDS011;11039;50.028;19.938;2022-08-30T06:05:00;11.20;;;4.70;;
21754;SDS011;11039;50.028;19.938;2022-08-30T06:07:26;8.48;;;4.78;;
21754;SDS011;11039;50.028;19.938;2022-08-30T06:09:53;9.43;;;4.10;;
21754;SDS011;11039;50.028;19.938;2022-08-30T06:12:19;9.77;;;4.43;;
21754;SDS011;11039;50.028;19.938;2022-08-30T06:14:45;9.05;;;4.22;;
21754;SDS011;11039;50.028;19.938;2022-08-30T06:17:11;8.00;;;4.07;;
21754;SDS011;11039;50.028;19.938;2022-08-30T06:19:37;8.52;;;4.53;;
21754;SDS011;11039;50.028;19.938;2022-08-30T06:22:04;6.80;;;4.07;;
21754;SDS011;11039;50.028;19.938;2022-08-30T06:24:30;9.02;;;4.18;;
21754;SDS011;11039;50.028;19.938;2022-08-30T06:26:56;7.07;;;3.97;;
21754;SDS011;11039;50.028;19.938;2022-08-30T06:29:22;9.63;;;4.65;;
21754;SDS011;11039;50.028;19.938;2022-08-30T06:31:48;9.25;;;4.15;;
21754;SDS011;11039;50.028;19.938;2022-08-30T06:34:14;7.43;;;3.95;;
21754;SDS011;11039;50.028;19.938;2022-08-30T06:36:41;9.27;;;4.35;;
21754;SDS011;11039;50.028;19.938;2022-08-30T06:39:08;8.45;;;3.47;;
21754;SDS011;11039;50.028;19.938;2022-08-30T06:41:34;8.73;;;4.20;;
21754;SDS011;11039;50.028;19.938;2022-08-30T06:44:01;13.18;;;4.20;;
21754;SDS011;11039;50.028;19.938;2022-08-30T06:46:29;6.65;;;3.75;;
21754;SDS011;11039;50.028;19.938;2022-08-30T06:48:56;8.52;;;4.43;;
21754;SDS011;11039;50.028;19.938;2022-08-30T06:51:25;8.65;;;3.90;;
21754;SDS011;11039;50.028;19.938;2022-08-30T06:53:51;8.93;;;4.70;;
21754;SDS011;11039;50.028;19.938;2022-08-30T06:56:18;10.82;;;4.20;;
21754;SDS011;11039;50.028;19.938;2022-08-30T06:58:44;7.75;;;3.85;;
21754;SDS011;11039;50.028;19.938;2022-08-30T07:01:11;6.47;;;3.75;;
21754;SDS011;11039;50.028;19.938;2022-08-30T07:03:38;8.38;;;3.92;;
21754;SDS011;11039;50.028;19.938;2022-08-30T07:06:04;7.40;;;3.85;;
21754;SDS011;11039;50.028;19.938;2022-08-30T07:08:30;6.22;;;3.72;;
21754;SDS011;11039;50.028;19.938;2022-08-30T07:10:56;9.73;;;3.97;;
21754;SDS011;11039;50.028;19.938;2022-08-30T07:13:22;6.80;;;3.83;;
21754;SDS011;11039;50.028;19.938;2022-08-30T07:15:49;6.00;;;3.40;;
21754;SDS011;11039;50.028;19.938;2022-08-30T07:18:15;8.30;;;3.47;;
21754;SDS011;11039;50.028;19.938;2022-08-30T07:21:07;7.35;;;4.00;;
21754;SDS011;11039;50.028;19.938;2022-08-30T07:23:33;10.43;;;4.15;;
21754;SDS011;11039;50.028;19.938;2022-08-30T07:26:02;10.57;;;4.35;;
21754;SDS011;11039;50.028;19.938;2022-08-30T07:28:28;8.38;;;4.13;;
21754;SDS011;11039;50.028;19.938;2022-08-30T07:30:54;7.82;;;4.07;;
21754;SDS011;11039;50.028;19.938;2022-08-30T07:33:20;7.57;;;3.53;;
21754;SDS011;11039;50.028;19.938;2022-08-30T07:35:46;6.60;;;4.05;;
21754;SDS011;11039;50.028;19.938;2022-08-30T07:38:13;5.72;;;3.65;;
21754;SDS011;11039;50.028;19.938;2022-08-30T07:40:39;7.93;;;4.55;;
21754;SDS011;11039;50.028;19.938;2022-08-30T07:43:05;7.80;;;3.97;;
21754;SDS011;11039;50.028;19.938;2022-08-30T07:45:31;8.30;;;3.80;;
21754;SDS011;11039;50.028;19.938;2022-08-30T07:47:57;6.95;;;3.70;;
21754;SDS011;11039;50.028;19.938;2022-08-30T07:50:23;10.13;;;4.10;;
21754;SDS011;11039;50.028;19.938;2022-08-30T07:52:49;7.60;;;4.18;;
21754;SDS011;11039;50.028;19.938;2022-08-30T07:55:15;7.38;;;3.85;;
21754;SDS011;11039;50.028;19.938;2022-08-30T07:57:41;11.93;;;4.53;;
21754;SDS011;11039;50.028;19.938;2022-08-30T08:00:08;10.07;;;4.00;;
21754;SDS011;11039;50.028;19.938;2022-08-30T08:02:34;7.95;;;4.15;;
21754;SDS011;11039;50.028;19.938;2022-08-30T08:05:01;8.77;;;3.90;;
21754;SDS011;11039;50.028;19.938;2022-08-30T08:07:29;6.78;;;3.85;;
21754;SDS011;11039;50.028;19.938;2022-08-30T08:09:56;11.07;;;4.00;;
21754;SDS011;11039;50.028;19.938;2022-08-30T08:12:22;6.63;;;3.40;;
21754;SDS011;11039;50.028;19.938;2022-08-30T08:14:48;5.07;;;3.33;;
21754;SDS011;11039;50.028;19.938;2022-08-30T08:17:15;7.03;;;3.60;;
21754;SDS011;11039;50.028;19.938;2022-08-30T08:19:41;10.52;;;3.70;;
21754;SDS011;11039;50.028;19.938;2022-08-30T08:22:07;9.88;;;3.83;;
21754;SDS011;11039;50.028;19.938;2022-08-30T08:24:33;6.05;;;3.70;;
21754;SDS011;11039;50.028;19.938;2022-08-30T08:26:59;6.93;;;3.90;;
21754;SDS011;11039;50.028;19.938;2022-08-30T08:29:26;7.68;;;3.70;;
21754;SDS011;11039;50.028;19.938;2022-08-30T08:31:52;8.15;;;3.65;;
21754;SDS011;11039;50.028;19.938;2022-08-30T08:34:18;7.45;;;3.58;;
21754;SDS011;11039;50.028;19.938;2022-08-30T08:36:47;8.85;;;3.70;;
21754;SDS011;11039;50.028;19.938;2022-08-30T08:39:13;8.63;;;3.78;;
21754;SDS011;11039;50.028;19.938;2022-08-30T08:42:15;11.85;;;3.60;;
21754;SDS011;11039;50.028;19.938;2022-08-30T08:49:24;6.93;;;3.78;;
21754;SDS011;11039;50.028;19.938;2022-08-30T08:51:50;16.42;;;4.03;;
21754;SDS011;11039;50.028;19.938;2022-08-30T08:54:39;6.05;;;3.10;;
21754;SDS011;11039;50.028;19.938;2022-08-30T08:57:07;8.13;;;3.30;;
21754;SDS011;11039;50.028;19.938;2022-08-30T08:59:33;7.55;;;3.45;;
21754;SDS011;11039;50.028;19.938;2022-08-30T09:02:00;7.80;;;3.35;;
21754;SDS011;11039;50.028;19.938;2022-08-30T09:04:33;6.88;;;3.28;;
21754;SDS011;11039;50.028;19.938;2022-08-30T09:07:22;6.07;;;3.47;;
21754;SDS011;11039;50.028;19.938;2022-08-30T09:09:46;6.40;;;3.20;;
21754;SDS011;11039;50.028;19.938;2022-08-30T09:12:12;10.73;;;3.42;;
21754;SDS011;11039;50.028;19.938;2022-08-30T09:14:42;5.68;;;3.15;;
21754;SDS011;11039;50.028;19.938;2022-08-30T09:17:09;7.47;;;3.85;;
21754;SDS011;11039;50.028;19.938;2022-08-30T09:19:37;7.13;;;3.20;;
21754;SDS011;11039;50.028;19.938;2022-08-30T09:25:01;7.40;;;3.60;;
21754;SDS011;11039;50.028;19.938;2022-08-30T09:29:58;4.95;;;2.90;;
21754;SDS011;11039;50.028;19.938;2022-08-30T09:32:34;5.57;;;3.10;;
21754;SDS011;11039;50.028;19.938;2022-08-30T09:35:00;8.40;;;3.22;;
21754;SDS011;11039;50.028;19.938;2022-08-30T09:37:30;8.57;;;3.63;;
21754;SDS011;11039;50.028;19.938;2022-08-30T09:39:56;5.85;;;3.50;;
21754;SDS011;11039;50.028;19.938;2022-08-30T09:42:24;5.47;;;3.20;;
21754;SDS011;11039;50.028;19.938;2022-08-30T09:44:50;6.95;;;3.45;;
21754;SDS011;11039;50.028;19.938;2022-08-30T09:47:22;7.30;;;3.67;;
21754;SDS011;11039;50.028;19.938;2022-08-30T09:50:14;9.15;;;4.40;;
21754;SDS011;11039;50.028;19.938;2022-08-30T09:58:30;6.10;;;3.67;;
21754;SDS011;11039;50.028;19.938;2022-08-30T10:01:01;5.65;;;3.78;;
21754;SDS011;11039;50.028;19.938;2022-08-30T10:03:33;7.32;;;3.47;;
21754;SDS011;11039;50.028;19.938;2022-08-30T10:21:07;6.50;;;4.07;;
21754;SDS011;11039;50.028;19.938;2022-08-30T10:23:46;8.25;;;3.25;;
21754;SDS011;11039;50.028;19.938;2022-08-30T10:28:44;7.45;;;3.58;;
21754;SDS011;11039;50.028;19.938;2022-08-30T10:33:46;8.82;;;3.70;;
21754;SDS011;11039;50.028;19.938;2022-08-30T10:36:13;8.35;;;3.75;;
21754;SDS011;11039;50.028;19.938;2022-08-30T10:38:47;15.25;;;4.75;;
21754;SDS011;11039;50.028;19.938;2022-08-30T10:49:04;7.30;;;3.40;;
21754;SDS011;11039;50.028;19.938;2022-08-30T10:54:12;8.55;;;3.17;;
21754;SDS011;11039;50.028;19.938;2022-08-30T10:56:40;4.82;;;2.97;;
21754;SDS011;11039;50.028;19.938;2022-08-30T10:59:08;6.05;;;3.40;;
21754;SDS011;11039;50.028;19.938;2022-08-30T11:04:34;7.00;;;3.55;;
21754;SDS011;11039;50.028;19.938;2022-08-30T11:15:13;5.38;;;2.97;;
21754;SDS011;11039;50.028;19.938;2022-08-30T11:18:22;4.88;;;2.78;;
21754;SDS011;11039;50.028;19.938;2022-08-30T11:33:50;6.72;;;3.22;;
21754;SDS011;11039;50.028;19.938;2022-08-30T11:44:04;25.08;;;3.97;;
21754;SDS011;11039;50.028;19.938;2022-08-30T11:46:37;3.95;;;2.92;;
21754;SDS011;11039;50.028;19.938;2022-08-30T12:05:00;5.35;;;3.20;;
21754;SDS011;11039;50.028;19.938;2022-08-30T12:10:20;4.88;;;3.58;;
21754;SDS011;11039;50.028;19.938;2022-08-30T12:12:47;6.85;;;3.35;;
21754;SDS011;11039;50.028;19.938;2022-08-30T12:17:59;4.97;;;3.22;;
21754;SDS011;11039;50.028;19.938;2022-08-30T12:20:45;5.97;;;3.50;;
21754;SDS011;11039;50.028;19.938;2022-08-30T12:26:12;5.70;;;3.30;;
21754;SDS011;11039;50.028;19.938;2022-08-30T12:28:39;3.90;;;2.75;;
21754;SDS011;11039;50.028;19.938;2022-08-30T12:31:06;5.63;;;4.03;;
21754;SDS011;11039;50.028;19.938;2022-08-30T12:33:39;8.40;;;3.67;;
21754;SDS011;11039;50.028;19.938;2022-08-30T12:36:05;5.00;;;3.60;;
21754;SDS011;11039;50.028;19.938;2022-08-30T12:38:32;4.78;;;3.65;;
21754;SDS011;11039;50.028;19.938;2022-08-30T12:40:59;6.15;;;3.95;;
21754;SDS011;11039;50.028;19.938;2022-08-30T12:43:28;5.57;;;3.13;;
21754;SDS011;11039;50.028;19.938;2022-08-30T12:45:55;4.53;;;3.40;;
21754;SDS011;11039;50.028;19.938;2022-08-30T12:48:22;4.80;;;3.08;;
21754;SDS011;11039;50.028;19.938;2022-08-30T12:50:50;5.25;;;3.95;;
21754;SDS011;11039;50.028;19.938;2022-08-30T12:55:57;4.22;;;3.38;;
21754;SDS011;11039;50.028;19.938;2022-08-30T13:06:37;4.97;;;3.78;;
21754;SDS011;11039;50.028;19.938;2022-08-30T13:09:03;6.68;;;3.83;;
21754;SDS011;11039;50.028;19.938;2022-08-30T13:11:30;4.82;;;3.65;;
21754;SDS011;11039;50.028;19.938;2022-08-30T13:13:59;4.78;;;3.92;;
21754;SDS011;11039;50.028;19.938;2022-08-30T13:16:42;5.47;;;3.88;;
21754;SDS011;11039;50.028;19.938;2022-08-30T13:19:17;6.93;;;3.80;;
21754;SDS011;11039;50.028;19.938;2022-08-30T13:21:51;6.10;;;4.10;;
21754;SDS011;11039;50.028;19.938;2022-08-30T13:24:18;6.35;;;4.00;;
21754;SDS011;11039;50.028;19.938;2022-08-30T13:26:44;5.65;;;3.58;;
21754;SDS011;11039;50.028;19.938;2022-08-30T13:29:14;6.78;;;3.97;;
21754;SDS011;11039;50.028;19.938;2022-08-30T13:31:41;6.50;;;3.83;;
21754;SDS011;11039;50.028;19.938;2022-08-30T13:34:07;6.13;;;3.78;;
21754;SDS011;11039;50.028;19.938;2022-08-30T13:36:34;4.18;;;3.53;;
21754;SDS011;11039;50.028;19.938;2022-08-30T13:39:01;5.47;;;3.72;;
21754;SDS011;11039;50.028;19.938;2022-08-30T13:41:28;4.68;;;3.33;;
21754;SDS011;11039;50.028;19.938;2022-08-30T13:43:54;5.72;;;3.92;;
21754;SDS011;11039;50.028;19.938;2022-08-30T13:46:20;4.28;;;3.45;;
21754;SDS011;11039;50.028;19.938;2022-08-30T13:48:48;4.18;;;3.30;;
21754;SDS011;11039;50.028;19.938;2022-08-30T13:51:14;5.05;;;3.58;;
21754;SDS011;11039;50.028;19.938;2022-08-30T13:53:40;6.05;;;4.15;;
21754;SDS011;11039;50.028;19.938;2022-08-30T13:56:06;5.30;;;3.60;;
21754;SDS011;11039;50.028;19.938;2022-08-30T13:58:33;6.85;;;3.70;;
21754;SDS011;11039;50.028;19.938;2022-08-30T14:00:59;5.55;;;3.17;;
21754;SDS011;11039;50.028;19.938;2022-08-30T14:03:25;4.75;;;3.53;;
21754;SDS011;11039;50.028;19.938;2022-08-30T14:05:51;6.45;;;3.80;;
21754;SDS011;11039;50.028;19.938;2022-08-30T14:08:19;6.65;;;3.55;;
21754;SDS011;11039;50.028;19.938;2022-08-30T14:10:45;3.58;;;3.13;;
21754;SDS011;11039;50.028;19.938;2022-08-30T14:13:11;6.38;;;3.00;;
21754;SDS011;11039;50.028;19.938;2022-08-30T14:15:37;4.78;;;2.97;;
21754;SDS011;11039;50.028;19.938;2022-08-30T14:18:05;4.07;;;2.97;;
21754;SDS011;11039;50.028;19.938;2022-08-30T14:20:32;4.47;;;3.05;;
21754;SDS011;11039;50.028;19.938;2022-08-30T14:22:59;4.10;;;2.75;;
21754;SDS011;11039;50.028;19.938;2022-08-30T14:25:25;3.67;;;3.00;;
21754;SDS011;11039;50.028;19.938;2022-08-30T14:27:52;3.92;;;2.92;;
21754;SDS011;11039;50.028;19.938;2022-08-30T14:30:18;4.20;;;2.80;;
21754;SDS011;11039;50.028;19.938;2022-08-30T14:32:45;3.97;;;2.90;;
21754;SDS011;11039;50.028;19.938;2022-08-30T14:35:11;3.05;;;2.60;;
21754;SDS011;11039;50.028;19.938;2022-08-30T14:37:37;4.65;;;3.33;;
21754;SDS011;11039;50.028;19.938;2022-08-30T14:40:04;4.47;;;3.45;;
21754;SDS011;11039;50.028;19.938;2022-08-30T14:42:30;4.53;;;3.13;;
21754;SDS011;11039;50.028;19.938;2022-08-30T14:44:56;4.22;;;3.50;;
21754;SDS011;11039;50.028;19.938;2022-08-30T14:47:22;4.57;;;2.80;;
21754;SDS011;11039;50.028;19.938;2022-08-30T14:49:48;6.22;;;3.15;;
21754;SDS011;11039;50.028;19.938;2022-08-30T14:52:14;5.43;;;3.35;;
21754;SDS011;11039;50.028;19.938;2022-08-30T14:54:40;5.28;;;3.03;;
21754;SDS011;11039;50.028;19.938;2022-08-30T14:57:06;4.13;;;3.22;;
21754;SDS011;11039;50.028;19.938;2022-08-30T14:59:32;4.10;;;2.92;;
21754;SDS011;11039;50.028;19.938;2022-08-30T15:01:58;3.67;;;3.28;;
21754;SDS011;11039;50.028;19.938;2022-08-30T15:04:24;4.70;;;2.95;;
21754;SDS011;11039;50.028;19.938;2022-08-30T15:06:50;5.53;;;3.17;;
21754;SDS011;11039;50.028;19.938;2022-08-30T15:09:18;4.68;;;3.08;;
21754;SDS011;11039;50.028;19.938;2022-08-30T15:11:44;3.83;;;2.80;;
21754;SDS011;11039;50.028;19.938;2022-08-30T15:14:11;3.63;;;2.75;;
21754;SDS011;11039;50.028;19.938;2022-08-30T15:16:37;4.85;;;2.95;;
21754;SDS011;11039;50.028;19.938;2022-08-30T15:19:04;6.65;;;3.08;;
21754;SDS011;11039;50.028;19.938;2022-08-30T15:21:38;6.25;;;3.47;;
21754;SDS011;11039;50.028;19.938;2022-08-30T15:24:06;4.28;;;2.90;;
21754;SDS011;11039;50.028;19.938;2022-08-30T15:26:33;5.10;;;4.00;;
21754;SDS011;11039;50.028;19.938;2022-08-30T15:29:00;4.40;;;3.10;;
21754;SDS011;11039;50.028;19.938;2022-08-30T15:31:27;6.18;;;3.58;;
21754;SDS011;11039;50.028;19.938;2022-08-30T15:33:56;4.50;;;3.10;;
21754;SDS011;11039;50.028;19.938;2022-08-30T15:36:22;4.38;;;3.70;;
21754;SDS011;11039;50.028;19.938;2022-08-30T15:38:48;5.75;;;3.42;;
21754;SDS011;11039;50.028;19.938;2022-08-30T15:41:16;5.20;;;3.22;;
21754;SDS011;11039;50.028;19.938;2022-08-30T15:43:42;4.43;;;2.97;;
21754;SDS011;11039;50.028;19.938;2022-08-30T15:48:40;6.55;;;3.22;;
21754;SDS011;11039;50.028;19.938;2022-08-30T15:51:06;4.40;;;2.80;;
21754;SDS011;11039;50.028;19.938;2022-08-30T15:53:33;4.15;;;2.88;;
21754;SDS011;11039;50.028;19.938;2022-08-30T15:55:59;3.60;;;2.55;;
21754;SDS011;11039;50.028;19.938;2022-08-30T15:58:25;4.05;;;2.70;;
21754;SDS011;11039;50.028;19.938;2022-08-30T16:00:52;4.32;;;2.50;;
21754;SDS011;11039;50.028;19.938;2022-08-30T16:03:17;4.03;;;2.60;;
21754;SDS011;11039;50.028;19.938;2022-08-30T16:05:44;4.90;;;2.50;;
21754;SDS011;11039;50.028;19.938;2022-08-30T16:08:10;3.42;;;2.50;;
21754;SDS011;11039;50.028;19.938;2022-08-30T16:10:37;4.20;;;2.45;;
21754;SDS011;11039;50.028;19.938;2022-08-30T16:13:03;4.55;;;2.60;;
21754;SDS011;11039;50.028;19.938;2022-08-30T16:15:29;3.00;;;2.30;;
21754;SDS011;11039;50.028;19.938;2022-08-30T16:17:55;4.63;;;2.60;;
21754;SDS011;11039;50.028;19.938;2022-08-30T16:20:21;3.03;;;2.08;;
21754;SDS011;11039;50.028;19.938;2022-08-30T16:22:47;3.50;;;2.55;;
21754;SDS011;11039;50.028;19.938;2022-08-30T16:25:15;4.40;;;2.30;;
21754;SDS011;11039;50.028;19.938;2022-08-30T16:27:41;2.97;;;2.25;;
21754;SDS011;11039;50.028;19.938;2022-08-30T16:30:11;2.50;;;2.10;;
21754;SDS011;11039;50.028;19.938;2022-08-30T16:32:37;2.95;;;2.30;;